Terminal Aerodrome Forecast
Issued by NWS Cleveland, OH

Home | Current Version | Previous Version | Text Only | Print | Product List | Glossary On
Versions: 1 2 3 4 5 6 7 8 9 10 11 12 13 14 15 16 17 18 19
000
FTUS41 KCLE 250500
TAFERI
TAF
KERI 250540Z 2506/2606 20006KT P6SM BKN045
     FM251100 21009KT P6SM SCT040
      TEMPO 2513/2516 22012G20KT BKN025
     FM251600 22012G20KT P6SM SCT025 BKN060
     FM251800 25015G22KT P6SM VCSH BKN025 OVC040
     FM260000 28012G20KT P6SM SCT030=

USA.gov is the U.S. government's official web portal to all federal, state and local government web resources and services.